Time;durP1;ratioP1;P1;durP2;ratioP2;P2;SDS_P1;SDS_P2;PMS_P1;PMS_P2;Temp;Humidity;BMP_temperature;BMP_pressure;BME280_temperature;BME280_humidity;BME280_pressure;Samples;Min_cycle;Max_cycle;Signal;HPM_P1;HPM_P2
2021/04/27 00:00:19;;;;;;;3.40;1.80;;;3.40;1.00;;;;;;5098520;27;20475;-79
2021/04/27 00:02:46;;;;;;;2.45;2.25;;;3.40;1.00;;;;;;5099335;27;20259;-82
2021/04/27 00:05:16;;;;;;;2.40;2.20;;;3.40;1.00;;;;;;5100618;27;20225;-79
2021/04/27 00:07:43;;;;;;;5.60;2.05;;;3.30;1.00;;;;;;5100689;27;20222;-81
2021/04/27 00:10:12;;;;;;;3.25;2.10;;;3.30;1.00;;;;;;5091133;27;21071;-78
2021/04/27 00:12:39;;;;;;;4.40;2.17;;;3.30;1.00;;;;;;5082293;27;20920;-80
2021/04/27 00:15:08;;;;;;;2.38;1.77;;;3.20;1.00;;;;;;5102688;27;20219;-81
2021/04/27 00:17:34;;;;;;;3.10;2.20;;;3.20;1.00;;;;;;5101801;27;20230;-81
2021/04/27 00:20:01;;;;;;;2.08;1.80;;;3.20;1.00;;;;;;5101797;27;20271;-79
2021/04/27 00:22:28;;;;;;;3.35;1.88;;;3.20;1.00;;;;;;5090218;27;20226;-79
2021/04/27 00:24:54;;;;;;;4.65;2.17;;;3.10;1.00;;;;;;5123046;27;20286;-80
2021/04/27 00:27:21;;;;;;;3.35;2.15;;;3.10;1.00;;;;;;5110980;27;20216;-78
2021/04/27 00:29:47;;;;;;;2.45;2.15;;;3.10;1.00;;;;;;5077290;27;22852;-80
2021/04/27 00:32:13;;;;;;;2.53;1.92;;;3.00;1.00;;;;;;5097096;27;20260;-79
2021/04/27 00:34:40;;;;;;;1.67;1.58;;;3.00;1.00;;;;;;5100261;27;20678;-79
2021/04/27 00:37:06;;;;;;;4.55;2.00;;;3.10;1.00;;;;;;5097076;27;20223;-78
2021/04/27 00:39:33;;;;;;;4.32;2.03;;;3.10;1.00;;;;;;5069797;27;20228;-82
2021/04/27 00:42:00;;;;;;;3.10;2.15;;;3.10;1.00;;;;;;5101149;27;20257;-81
2021/04/27 00:44:26;;;;;;;2.80;1.90;;;3.10;1.00;;;;;;5083249;27;21067;-80
2021/04/27 00:46:52;;;;;;;2.05;1.88;;;3.00;1.00;;;;;;5092486;28;20224;-80
2021/04/27 00:49:19;;;;;;;3.25;1.85;;;3.00;1.00;;;;;;5108766;27;20263;-80
2021/04/27 00:51:45;;;;;;;2.95;1.63;;;3.00;1.00;;;;;;5084000;27;20301;-80
2021/04/27 00:54:11;;;;;;;3.20;2.28;;;2.90;1.00;;;;;;5091510;27;20230;-80
2021/04/27 00:56:39;;;;;;;4.03;2.10;;;3.00;1.00;;;;;;5084240;27;20230;-79
2021/04/27 00:59:06;;;;;;;2.30;2.05;;;3.00;1.00;;;;;;5090045;27;20224;-81
2021/04/27 01:01:32;;;;;;;2.33;1.90;;;3.00;1.00;;;;;;5106785;27;20236;-80
2021/04/27 01:03:59;;;;;;;5.60;2.20;;;2.90;1.00;;;;;;5105804;27;20230;-79
2021/04/27 01:06:25;;;;;;;3.47;2.10;;;2.90;1.00;;;;;;5104255;27;20226;-80
2021/04/27 01:08:56;;;;;;;2.55;2.30;;;2.90;1.00;;;;;;5097196;27;20216;-80
2021/04/27 01:11:29;;;;;;;4.32;2.60;;;2.90;1.00;;;;;;5091278;27;20232;-78
2021/04/27 01:14:03;;;;;;;4.07;2.40;;;2.90;1.00;;;;;;5071504;28;20753;-79
2021/04/27 01:16:32;;;;;;;4.25;2.60;;;2.90;1.00;;;;;;5101515;27;20249;-81
2021/04/27 01:18:59;;;;;;;3.03;2.00;;;3.00;1.00;;;;;;5101169;27;20228;-80
2021/04/27 01:21:27;;;;;;;3.45;2.50;;;2.90;1.00;;;;;;5085773;28;20211;-81
2021/04/27 01:24:09;;;;;;;3.45;2.30;;;3.00;1.00;;;;;;5112841;27;20216;-79
2021/04/27 01:26:39;;;;;;;3.35;2.10;;;3.00;1.00;;;;;;5089402;27;20226;-82
2021/04/27 01:29:07;;;;;;;4.18;2.30;;;2.90;1.00;;;;;;5100395;27;20224;-82
2021/04/27 01:31:35;;;;;;;6.82;3.20;;;2.90;1.00;;;;;;5103677;27;20234;-79
2021/04/27 01:34:03;;;;;;;2.97;2.67;;;2.90;1.00;;;;;;5105756;27;20223;-79
2021/04/27 01:36:30;;;;;;;4.25;2.72;;;2.90;1.00;;;;;;5101006;27;20223;-81
2021/04/27 01:38:56;;;;;;;4.18;2.25;;;2.90;1.00;;;;;;5095651;27;21166;-81
2021/04/27 01:41:23;;;;;;;6.00;2.85;;;2.90;1.00;;;;;;5095795;27;20236;-79
2021/04/27 01:43:51;;;;;;;4.63;2.55;;;2.90;1.00;;;;;;5106046;27;20231;-79
2021/04/27 01:46:18;;;;;;;3.75;3.05;;;2.90;1.00;;;;;;5095315;27;20356;-79
2021/04/27 01:48:46;;;;;;;2.83;2.25;;;2.90;1.00;;;;;;5086455;27;20278;-81
2021/04/27 01:51:13;;;;;;;4.65;3.28;;;2.90;1.00;;;;;;5091463;27;20228;-81
2021/04/27 01:53:40;;;;;;;3.78;2.75;;;2.90;1.00;;;;;;5089741;27;20220;-79
2021/04/27 01:56:06;;;;;;;3.75;2.30;;;2.90;1.00;;;;;;5101562;27;20996;-80
2021/04/27 01:58:33;;;;;;;9.48;2.83;;;2.90;1.00;;;;;;5097359;27;20219;-79
2021/04/27 02:01:01;;;;;;;4.10;3.80;;;2.90;1.00;;;;;;5099887;27;20307;-81
2021/04/27 02:03:28;;;;;;;2.88;2.50;;;2.90;1.00;;;;;;5101238;27;20338;-78
2021/04/27 02:05:54;;;;;;;4.15;3.00;;;2.90;1.00;;;;;;5085314;27;20997;-81
2021/04/27 02:08:20;;;;;;;4.65;2.85;;;2.90;1.00;;;;;;5094009;27;20254;-80
2021/04/27 02:10:47;;;;;;;3.28;2.40;;;2.80;1.00;;;;;;5094419;27;20235;-79
2021/04/27 02:13:19;;;;;;;5.47;2.90;;;2.80;1.00;;;;;;5079080;27;20223;-80
2021/04/27 02:15:46;;;;;;;3.65;2.50;;;2.80;1.00;;;;;;5099037;27;20255;-81
2021/04/27 02:18:19;;;;;;;3.30;2.35;;;2.80;1.00;;;;;;5099948;27;20222;-81
2021/04/27 02:20:46;;;;;;;4.57;2.80;;;2.80;1.00;;;;;;5105160;27;20221;-80
2021/04/27 02:23:13;;;;;;;2.25;1.92;;;2.70;1.00;;;;;;5114589;27;20233;-78
2021/04/27 02:25:41;;;;;;;4.40;2.70;;;2.70;1.00;;;;;;5121189;27;20245;-80
2021/04/27 02:28:08;;;;;;;3.28;2.30;;;2.70;1.00;;;;;;5104843;27;20754;-80
2021/04/27 02:30:35;;;;;;;4.13;3.05;;;2.70;1.00;;;;;;5094943;27;20255;-78
2021/04/27 02:33:02;;;;;;;2.70;2.17;;;2.70;1.00;;;;;;5090943;27;20224;-81
2021/04/27 02:35:30;;;;;;;5.75;2.63;;;2.70;1.00;;;;;;5095414;27;20235;-80
2021/04/27 02:37:57;;;;;;;6.13;2.70;;;2.60;1.00;;;;;;5102604;27;20223;-80
2021/04/27 02:40:26;;;;;;;3.05;2.65;;;2.60;1.00;;;;;;5101405;27;20239;-81
2021/04/27 02:42:56;;;;;;;4.55;3.13;;;2.60;1.00;;;;;;5104650;27;20224;-80
2021/04/27 02:45:30;;;;;;;2.53;2.05;;;2.60;1.00;;;;;;5091091;27;20221;-80
2021/04/27 02:48:07;;;;;;;8.00;2.53;;;2.50;1.00;;;;;;5087322;27;20227;-80
2021/04/27 02:50:36;;;;;;;4.85;3.05;;;2.50;1.00;;;;;;5082985;27;20987;-81
2021/04/27 02:53:03;;;;;;;5.63;2.90;;;2.40;1.00;;;;;;5099364;27;20723;-81
2021/04/27 02:55:29;;;;;;;3.55;3.20;;;2.40;1.00;;;;;;5086643;27;20234;-80
2021/04/27 02:57:56;;;;;;;3.20;2.55;;;2.40;1.00;;;;;;5099544;27;20705;-81
2021/04/27 03:00:22;;;;;;;3.58;2.30;;;2.40;1.00;;;;;;5090868;27;20310;-80
2021/04/27 03:02:48;;;;;;;3.10;2.80;;;2.50;1.00;;;;;;5098267;27;20262;-81
2021/04/27 03:05:15;;;;;;;4.15;3.15;;;2.50;1.00;;;;;;5107655;27;20223;-79
2021/04/27 03:07:42;;;;;;;10.65;3.60;;;2.50;1.00;;;;;;5085754;27;20285;-82
2021/04/27 03:10:09;;;;;;;4.38;3.22;;;2.50;1.00;;;;;;5093383;27;20285;-80
2021/04/27 03:12:36;;;;;;;4.20;2.97;;;2.60;1.00;;;;;;5099708;27;21122;-82
2021/04/27 03:15:03;;;;;;;4.60;3.40;;;2.50;1.00;;;;;;5097847;27;21164;-79
2021/04/27 03:17:29;;;;;;;4.22;3.03;;;2.60;1.00;;;;;;5094788;27;20235;-80
2021/04/27 03:19:56;;;;;;;4.38;2.70;;;2.60;1.00;;;;;;5100810;27;20204;-80
2021/04/27 03:22:22;;;;;;;2.70;2.50;;;2.60;1.00;;;;;;5124553;27;20208;-80
2021/04/27 03:24:50;;;;;;;3.40;2.70;;;2.60;1.00;;;;;;5078674;28;20231;-80
2021/04/27 03:27:16;;;;;;;4.70;2.80;;;2.60;1.00;;;;;;5087371;27;20243;-80
2021/04/27 03:29:42;;;;;;;4.03;2.72;;;2.60;1.00;;;;;;5092884;27;20220;-79
2021/04/27 03:32:09;;;;;;;6.65;2.90;;;2.60;1.00;;;;;;5091180;27;20996;-80
2021/04/27 03:34:35;;;;;;;3.72;2.42;;;2.60;1.00;;;;;;5101872;27;20228;-81
2021/04/27 03:37:02;;;;;;;7.90;4.03;;;2.60;1.00;;;;;;5103789;27;21032;-81
2021/04/27 03:39:28;;;;;;;4.78;3.63;;;2.60;1.00;;;;;;5102176;27;20228;-81
2021/04/27 03:41:56;;;;;;;4.25;2.80;;;2.60;1.00;;;;;;5099231;27;20223;-80
2021/04/27 03:44:22;;;;;;;6.30;3.90;;;2.60;1.00;;;;;;5105997;27;20298;-81
2021/04/27 03:46:48;;;;;;;13.55;4.15;;;2.60;1.00;;;;;;5101296;27;20223;-80
2021/04/27 03:49:15;;;;;;;2.47;2.10;;;2.60;1.00;;;;;;5114728;27;20237;-81
2021/04/27 03:51:41;;;;;;;4.88;3.00;;;2.60;1.00;;;;;;5122587;27;20224;-80
2021/04/27 03:54:07;;;;;;;3.50;3.08;;;2.60;1.00;;;;;;5114062;27;20232;-80
2021/04/27 03:56:34;;;;;;;12.32;3.20;;;2.60;1.00;;;;;;5100465;27;20288;-80
2021/04/27 03:59:01;;;;;;;6.30;3.03;;;2.60;1.00;;;;;;5084662;27;20223;-81
2021/04/27 04:01:28;;;;;;;4.57;2.88;;;2.60;1.00;;;;;;5102909;27;20218;-81
2021/04/27 04:03:54;;;;;;;7.05;4.00;;;2.60;1.00;;;;;;5099666;27;20233;-82
2021/04/27 04:06:20;;;;;;;3.80;3.00;;;2.60;1.00;;;;;;5103950;27;20220;-81
2021/04/27 04:08:46;;;;;;;4.47;3.30;;;2.60;1.00;;;;;;5103469;27;21282;-81
2021/04/27 04:11:13;;;;;;;8.88;4.75;;;2.60;1.00;;;;;;5089755;27;20235;-80
2021/04/27 04:13:39;;;;;;;12.23;4.82;;;2.60;1.00;;;;;;5100277;27;20227;-81
2021/04/27 04:16:08;;;;;;;4.63;3.25;;;2.60;1.00;;;;;;5082164;27;20215;-80
2021/04/27 04:18:34;;;;;;;4.75;3.70;;;2.70;1.00;;;;;;5103571;27;21503;-80
2021/04/27 04:21:01;;;;;;;6.65;3.55;;;2.70;1.00;;;;;;5087095;27;20266;-81
2021/04/27 04:23:27;;;;;;;3.75;2.60;;;2.70;1.00;;;;;;5105676;27;20292;-81
2021/04/27 04:25:53;;;;;;;5.60;4.10;;;2.70;1.00;;;;;;5096341;28;20220;-81
2021/04/27 04:28:20;;;;;;;4.85;4.30;;;2.70;1.00;;;;;;5106518;27;20277;-80
2021/04/27 04:30:46;;;;;;;8.82;5.03;;;2.70;1.00;;;;;;5108448;27;20252;-83
2021/04/27 04:33:14;;;;;;;5.30;3.80;;;2.70;1.00;;;;;;5088477;27;20239;-81
2021/04/27 04:35:40;;;;;;;7.35;3.70;;;2.70;1.00;;;;;;5089612;27;20224;-79
2021/04/27 04:38:06;;;;;;;4.35;3.92;;;2.70;1.00;;;;;;5089906;27;20224;-80
2021/04/27 04:40:33;;;;;;;7.43;4.60;;;2.80;1.00;;;;;;5097916;27;20215;-82
2021/04/27 04:43:00;;;;;;;9.18;4.97;;;2.80;1.00;;;;;;5085211;27;22817;-79
2021/04/27 04:45:26;;;;;;;7.00;3.35;;;2.80;1.00;;;;;;5101335;27;20356;-79
2021/04/27 04:47:53;;;;;;;6.10;4.15;;;2.80;1.00;;;;;;5102774;27;20215;-79
2021/04/27 04:50:21;;;;;;;4.45;4.05;;;2.80;1.00;;;;;;5103265;27;20266;-78
2021/04/27 04:52:48;;;;;;;8.40;4.80;;;2.90;1.00;;;;;;5097747;28;20272;-79
2021/04/27 04:55:15;;;;;;;3.53;3.22;;;2.90;1.00;;;;;;5103260;28;20313;-79
2021/04/27 04:57:42;;;;;;;9.93;4.35;;;2.90;1.00;;;;;;5085957;27;21221;-79
2021/04/27 05:00:11;;;;;;;5.20;3.70;;;2.90;1.00;;;;;;5086862;28;20220;-79
2021/04/27 05:02:38;;;;;;;6.13;3.45;;;3.00;1.00;;;;;;5100527;27;20235;-81
2021/04/27 05:05:05;;;;;;;5.50;3.20;;;3.10;1.00;;;;;;5106598;27;20279;-81
2021/04/27 05:07:39;;;;;;;6.88;4.55;;;3.10;1.00;;;;;;5096325;27;20221;-80
2021/04/27 05:10:06;;;;;;;5.68;3.75;;;3.20;1.00;;;;;;5114353;27;20252;-79
2021/04/27 05:12:32;;;;;;;12.20;4.82;;;3.30;1.00;;;;;;5106693;27;20219;-78
2021/04/27 05:14:59;;;;;;;3.83;2.85;;;3.30;1.00;;;;;;5110509;27;20220;-81
2021/04/27 05:17:25;;;;;;;6.75;4.57;;;3.40;1.00;;;;;;5106773;27;20251;-81
2021/04/27 05:20:01;;;;;;;7.60;5.40;;;3.50;1.00;;;;;;5097603;27;20272;-80
2021/04/27 05:22:28;;;;;;;5.28;4.20;;;3.60;1.00;;;;;;5107859;27;20215;-81
2021/04/27 05:24:55;;;;;;;4.28;3.55;;;3.70;1.00;;;;;;5088419;27;20230;-81
2021/04/27 05:27:22;;;;;;;7.93;4.95;;;3.90;1.00;;;;;;5106065;27;20219;-82
2021/04/27 05:29:48;;;;;;;4.78;3.72;;;3.90;1.00;;;;;;5121459;27;20241;-77
2021/04/27 05:32:15;;;;;;;14.13;7.60;;;4.00;1.00;;;;;;5125400;27;20227;-81
2021/04/27 05:34:42;;;;;;;4.45;3.95;;;4.10;1.00;;;;;;5130373;27;20653;-81
2021/04/27 05:37:08;;;;;;;6.25;3.78;;;4.20;1.00;;;;;;5125508;27;20206;-81
2021/04/27 05:39:35;;;;;;;7.30;3.90;;;4.30;1.00;;;;;;5119373;27;20227;-80
2021/04/27 05:42:02;;;;;;;4.93;3.83;;;4.30;1.00;;;;;;5128719;27;20204;-81
2021/04/27 05:44:28;;;;;;;6.78;4.13;;;4.40;1.00;;;;;;5120164;27;21033;-81
2021/04/27 05:46:55;;;;;;;7.45;4.43;;;4.60;1.00;;;;;;5123466;27;20257;-80
2021/04/27 05:49:22;;;;;;;4.38;3.72;;;4.70;1.00;;;;;;5125866;27;20234;-79
2021/04/27 05:51:49;;;;;;;10.10;5.25;;;4.80;1.00;;;;;;5112696;28;20240;-82
2021/04/27 05:54:15;;;;;;;9.45;4.05;;;5.00;1.00;;;;;;5119556;27;20433;-79
2021/04/27 05:56:42;;;;;;;5.65;3.80;;;5.10;1.00;;;;;;5124863;27;20249;-77
2021/04/27 05:59:10;;;;;;;11.77;5.20;;;5.20;1.00;;;;;;5119116;27;20298;-78
2021/04/27 06:01:36;;;;;;;17.05;6.18;;;5.20;1.00;;;;;;5125797;27;20222;-76
2021/04/27 06:04:03;;;;;;;7.82;4.10;;;5.40;1.00;;;;;;5108785;28;20223;-76
2021/04/27 06:06:31;;;;;;;5.18;4.68;;;5.50;1.00;;;;;;5128287;27;20226;-76
2021/04/27 06:08:57;;;;;;;7.20;4.50;;;5.70;1.00;;;;;;5126013;27;21581;-76
2021/04/27 06:11:23;;;;;;;6.55;4.47;;;5.80;1.00;;;;;;5119613;27;20236;-77
2021/04/27 06:13:50;;;;;;;4.45;3.53;;;5.90;1.00;;;;;;5111476;27;20366;-77
2021/04/27 06:16:17;;;;;;;3.92;3.30;;;6.00;1.00;;;;;;5109593;27;20239;-77
2021/04/27 06:18:43;;;;;;;7.35;3.83;;;6.10;1.00;;;;;;5109517;27;20240;-77
2021/04/27 06:21:09;;;;;;;5.70;4.22;;;6.10;1.00;;;;;;5105733;27;22871;-76
2021/04/27 06:23:35;;;;;;;6.35;4.13;;;6.00;1.00;;;;;;5105396;27;20251;-76
2021/04/27 06:26:02;;;;;;;8.50;4.88;;;6.10;1.00;;;;;;5102292;27;20224;-77
2021/04/27 06:28:28;;;;;;;7.70;4.85;;;6.20;1.00;;;;;;5092852;27;21006;-77
2021/04/27 06:30:54;;;;;;;7.88;4.63;;;6.30;1.00;;;;;;5086401;27;20295;-77
2021/04/27 06:33:21;;;;;;;4.35;2.75;;;6.40;1.00;;;;;;5097546;27;20227;-77
2021/04/27 06:35:48;;;;;;;3.40;2.70;;;6.30;1.00;;;;;;5100373;27;20233;-77
2021/04/27 06:38:17;;;;;;;9.40;6.10;;;6.30;1.00;;;;;;5107069;27;21202;-76
2021/04/27 06:40:44;;;;;;;3.83;3.42;;;6.30;1.00;;;;;;5110806;27;20288;-77
2021/04/27 06:43:10;;;;;;;5.63;3.60;;;6.30;1.00;;;;;;5109787;27;20242;-77
2021/04/27 06:45:37;;;;;;;4.03;3.70;;;6.40;1.00;;;;;;5103766;27;20303;-77
2021/04/27 06:48:04;;;;;;;6.68;4.70;;;6.50;1.00;;;;;;5105379;27;20318;-78
2021/04/27 06:50:32;;;;;;;3.97;3.30;;;6.70;1.00;;;;;;5092641;27;20284;-77
2021/04/27 06:52:58;;;;;;;7.40;3.63;;;6.70;1.00;;;;;;5105740;27;20223;-77
2021/04/27 06:55:25;;;;;;;4.18;2.63;;;6.90;1.00;;;;;;5105969;27;21010;-79
2021/04/27 06:57:51;;;;;;;3.47;2.65;;;6.90;1.00;;;;;;5353395;22;20229;-77
2021/04/27 07:00:18;;;;;;;21.92;4.07;;;6.80;1.00;;;;;;5079244;28;20225;-78
2021/04/27 07:02:45;;;;;;;11.95;3.00;;;6.80;1.00;;;;;;5064306;28;20233;-77
2021/04/27 07:05:11;;;;;;;3.25;2.80;;;6.90;1.00;;;;;;5066336;28;20300;-78
2021/04/27 07:07:39;;;;;;;6.15;3.33;;;7.10;1.00;;;;;;5083209;28;20250;-78
2021/04/27 07:10:07;;;;;;;5.82;3.78;;;7.30;1.00;;;;;;5078895;28;20239;-77
2021/04/27 07:12:33;;;;;;;6.88;2.40;;;7.30;1.00;;;;;;5073864;28;20315;-76
2021/04/27 07:14:59;;;;;;;5.00;3.10;;;7.40;1.00;;;;;;5064324;28;20684;-78
2021/04/27 07:17:25;;;;;;;3.65;2.85;;;7.40;1.00;;;;;;5072235;28;20205;-79
2021/04/27 07:19:51;;;;;;;3.08;2.85;;;7.60;1.00;;;;;;5077697;28;20365;-78
2021/04/27 07:22:18;;;;;;;4.25;2.67;;;7.80;1.00;;;;;;5071398;28;20255;-80
2021/04/27 07:24:45;;;;;;;3.70;2.38;;;8.00;1.00;;;;;;5073761;28;20582;-77
2021/04/27 07:27:11;;;;;;;7.93;3.30;;;8.10;1.00;;;;;;5077739;28;20244;-79
2021/04/27 07:29:38;;;;;;;2.85;2.63;;;8.20;1.00;;;;;;5072440;28;20253;-77
2021/04/27 07:32:04;;;;;;;3.10;2.40;;;8.40;1.00;;;;;;5069792;28;20299;-77
2021/04/27 07:34:31;;;;;;;6.85;4.60;;;8.50;1.00;;;;;;5073801;28;20232;-78
2021/04/27 07:36:57;;;;;;;3.08;2.70;;;8.70;1.00;;;;;;5085241;28;20248;-77
2021/04/27 07:39:23;;;;;;;4.72;3.05;;;8.80;1.00;;;;;;5068809;28;20231;-78
2021/04/27 07:41:50;;;;;;;4.63;2.38;;;8.80;1.00;;;;;;5074689;28;21496;-78
2021/04/27 07:44:17;;;;;;;3.70;1.75;;;8.80;1.00;;;;;;5047571;28;20223;-77
2021/04/27 07:46:43;;;;;;;5.55;3.67;;;8.80;1.00;;;;;;5062570;28;20225;-77
2021/04/27 07:49:10;;;;;;;3.28;2.38;;;8.80;1.00;;;;;;5066617;28;20263;-78
2021/04/27 07:51:36;;;;;;;6.05;3.00;;;9.10;1.00;;;;;;5064407;28;20247;-79
2021/04/27 07:54:03;;;;;;;2.38;1.80;;;9.20;1.00;;;;;;5063628;28;20261;-77
2021/04/27 07:56:30;;;;;;;3.85;3.20;;;9.40;1.00;;;;;;5056246;28;20240;-77
2021/04/27 07:58:58;;;;;;;3.40;1.90;;;9.30;1.00;;;;;;5068588;28;20217;-77
2021/04/27 08:01:25;;;;;;;3.00;2.15;;;9.20;1.00;;;;;;5067552;28;21540;-77
2021/04/27 08:03:53;;;;;;;1.85;1.63;;;9.30;1.00;;;;;;5066965;28;20227;-79
2021/04/27 08:06:19;;;;;;;2.72;1.48;;;9.10;1.00;;;;;;5073635;28;20244;-77
2021/04/27 08:08:45;;;;;;;3.45;1.50;;;9.10;1.00;;;;;;5074280;28;20236;-78
2021/04/27 08:11:12;;;;;;;4.25;2.20;;;9.20;1.00;;;;;;5066493;28;20358;-78
2021/04/27 08:13:38;;;;;;;2.35;2.13;;;9.30;1.00;;;;;;5067123;28;20220;-78
2021/04/27 08:16:06;;;;;;;4.95;3.20;;;9.30;1.00;;;;;;5081693;28;20225;-78
2021/04/27 08:18:32;;;;;;;2.58;2.13;;;9.50;1.00;;;;;;5075933;28;20221;-76
2021/04/27 08:20:59;;;;;;;1.92;1.83;;;9.70;1.00;;;;;;5055332;28;20275;-78
2021/04/27 08:23:25;;;;;;;3.85;1.77;;;9.90;1.00;;;;;;5069832;28;20227;-76
2021/04/27 08:25:51;;;;;;;1.80;1.70;;;10.00;1.00;;;;;;5063403;28;20264;-77
2021/04/27 08:28:17;;;;;;;2.53;1.98;;;9.90;1.00;;;;;;5068586;28;20250;-78
2021/04/27 08:30:44;;;;;;;5.45;2.60;;;10.00;1.00;;;;;;5066098;28;20299;-77
2021/04/27 08:33:11;;;;;;;2.70;1.90;;;10.20;1.00;;;;;;5078137;28;20264;-78
2021/04/27 08:35:37;;;;;;;5.85;2.58;;;10.40;1.00;;;;;;5086434;28;20228;-77
2021/04/27 08:38:03;;;;;;;5.22;2.20;;;10.50;1.00;;;;;;5074722;28;20248;-78
2021/04/27 08:40:29;;;;;;;3.47;1.90;;;10.50;1.00;;;;;;5067083;28;20305;-77
2021/04/27 08:42:56;;;;;;;2.40;1.90;;;10.70;1.00;;;;;;5070080;28;20466;-77
2021/04/27 08:45:22;;;;;;;3.42;2.15;;;10.70;1.00;;;;;;5061026;28;20221;-77
2021/04/27 08:47:49;;;;;;;3.28;1.88;;;10.70;1.00;;;;;;5054957;28;20274;-78
2021/04/27 08:50:17;;;;;;;4.72;2.88;;;10.80;1.00;;;;;;5062071;28;20297;-77
2021/04/27 08:52:44;;;;;;;3.00;1.60;;;11.00;1.00;;;;;;5062051;28;20652;-78
2021/04/27 08:55:13;;;;;;;3.65;2.60;;;10.90;1.00;;;;;;5073799;28;20899;-76
2021/04/27 08:57:39;;;;;;;1.95;1.73;;;11.00;1.00;;;;;;5067885;28;20228;-77
2021/04/27 09:00:09;;;;;;;2.00;1.77;;;11.20;1.00;;;;;;5063905;28;20221;-76
2021/04/27 09:02:36;;;;;;;2.00;1.40;;;11.30;1.00;;;;;;5063556;28;20493;-78
2021/04/27 09:05:03;;;;;;;4.00;2.13;;;11.30;1.00;;;;;;5049694;28;20500;-78
2021/04/27 09:07:42;;;;;;;2.03;1.80;;;11.40;1.00;;;;;;5063344;28;20448;-76
2021/04/27 09:10:14;;;;;;;5.10;2.40;;;11.60;1.00;;;;;;5059126;28;20461;-77
2021/04/27 09:12:48;;;;;;;2.00;1.57;;;11.60;1.00;;;;;;5059045;28;20459;-77
2021/04/27 09:15:24;;;;;;;3.10;1.80;;;11.60;1.00;;;;;;5058246;28;20486;-78
2021/04/27 09:17:50;;;;;;;3.17;1.60;;;11.40;1.00;;;;;;5065994;28;20459;-78
2021/04/27 09:20:17;;;;;;;1.67;1.57;;;11.50;1.00;;;;;;5064387;28;20416;-77
2021/04/27 09:22:44;;;;;;;2.03;1.83;;;11.70;1.00;;;;;;5063084;28;20493;-77
2021/04/27 09:25:11;;;;;;;12.83;2.50;;;11.80;1.00;;;;;;5040341;28;21005;-77
2021/04/27 09:27:39;;;;;;;2.47;1.50;;;12.00;1.00;;;;;;5052232;28;20427;-76
2021/04/27 09:30:12;;;;;;;3.30;1.70;;;12.30;1.00;;;;;;5064821;28;20949;-78
2021/04/27 09:32:41;;;;;;;4.10;1.90;;;13.00;1.00;;;;;;5077496;28;20475;-78
2021/04/27 09:35:29;;;;;;;4.93;2.17;;;14.00;1.00;;;;;;5088664;28;20423;-77
2021/04/27 09:38:17;;;;;;;3.83;1.80;;;15.20;1.00;;;;;;5073879;28;20463;-78
2021/04/27 09:40:51;;;;;;;3.73;1.77;;;16.40;1.00;;;;;;5068749;28;20512;-78
2021/04/27 09:43:18;;;;;;;2.30;1.80;;;17.20;1.00;;;;;;5068472;28;20408;-79
2021/04/27 09:45:46;;;;;;;1.97;1.77;;;18.50;1.00;;;;;;5070024;28;20221;-79
2021/04/27 09:48:13;;;;;;;3.33;1.97;;;19.60;1.00;;;;;;5075594;28;20476;-77
2021/04/27 09:50:41;;;;;;;2.13;1.87;;;20.10;1.00;;;;;;5073802;28;20477;-76
2021/04/27 09:53:08;;;;;;;4.30;1.63;;;20.40;1.00;;;;;;5069900;28;20446;-79
2021/04/27 09:55:35;;;;;;;4.13;2.00;;;20.60;1.00;;;;;;5078180;28;20444;-77
2021/04/27 09:58:03;;;;;;;3.90;1.60;;;21.10;1.00;;;;;;5072545;28;20537;-77
2021/04/27 10:00:34;;;;;;;4.33;1.50;;;20.90;1.00;;;;;;5072667;28;21225;-77
2021/04/27 10:03:04;;;;;;;2.83;1.60;;;21.60;1.00;;;;;;5074909;28;21908;-78
2021/04/27 10:05:31;;;;;;;2.27;1.70;;;21.70;1.00;;;;;;5079815;28;20426;-77
2021/04/27 10:07:59;;;;;;;3.10;1.70;;;22.00;1.00;;;;;;5069443;28;21186;-77
2021/04/27 10:10:27;;;;;;;3.20;1.80;;;22.50;1.00;;;;;;5070825;28;20462;-77
2021/04/27 10:12:57;;;;;;;3.40;2.10;;;23.30;1.00;;;;;;5075701;28;20817;-77
2021/04/27 10:15:23;;;;;;;1.67;1.57;;;23.20;1.00;;;;;;5075010;28;20465;-78
2021/04/27 10:17:51;;;;;;;2.13;1.30;;;22.80;1.00;;;;;;5072765;28;20463;-77
2021/04/27 10:20:17;;;;;;;5.70;3.20;;;23.30;1.00;;;;;;5075297;28;20468;-78
2021/04/27 10:22:47;;;;;;;4.10;2.50;;;23.90;1.00;;;;;;5078283;28;20470;-78
2021/04/27 10:25:16;;;;;;;2.80;2.13;;;23.90;1.00;;;;;;5069561;28;20438;-76
2021/04/27 10:27:43;;;;;;;1.60;1.50;;;23.80;1.00;;;;;;5072426;28;20442;-76
2021/04/27 10:30:31;;;;;;;2.00;1.57;;;24.30;1.00;;;;;;5079078;28;20450;-78
2021/04/27 10:33:25;;;;;;;3.93;2.07;;;24.90;1.00;;;;;;5075096;28;20456;-78
2021/04/27 10:36:04;;;;;;;2.77;1.70;;;24.10;1.00;;;;;;5085827;28;20486;-77
2021/04/27 10:38:48;;;;;;;2.80;1.90;;;23.60;1.00;;;;;;5074347;28;20449;-78
2021/04/27 10:41:16;;;;;;;5.00;3.10;;;23.30;1.00;;;;;;5071584;28;20477;-76
2021/04/27 10:43:51;;;;;;;8.47;2.00;;;22.90;1.00;;;;;;5072586;28;20439;-77
2021/04/27 10:46:46;;;;;;;2.90;1.80;;;23.70;1.00;;;;;;5069992;28;20520;-78
2021/04/27 10:49:20;;;;;;;3.40;2.93;;;24.30;1.00;;;;;;5071804;28;20565;-76
2021/04/27 10:51:47;;;;;;;4.70;1.90;;;24.70;1.00;;;;;;5077441;28;20499;-77
2021/04/27 10:54:19;;;;;;;5.20;2.60;;;24.90;1.00;;;;;;5064866;28;20650;-76
2021/04/27 10:56:47;;;;;;;2.10;1.80;;;25.30;1.00;;;;;;5037756;28;20519;-78
2021/04/27 10:59:15;;;;;;;7.20;3.33;;;24.80;1.00;;;;;;5072114;28;21183;-77
2021/04/27 11:01:44;;;;;;;3.40;2.10;;;24.10;1.00;;;;;;5061358;28;20452;-78
2021/04/27 11:04:32;;;;;;;4.37;2.60;;;23.70;1.00;;;;;;5074944;28;20526;-76
2021/04/27 11:07:29;;;;;;;2.93;2.47;;;24.20;1.00;;;;;;5073003;28;20418;-78
2021/04/27 11:10:30;;;;;;;5.60;3.63;;;24.60;1.00;;;;;;5076536;28;20411;-78
2021/04/27 11:12:59;;;;;;;5.17;2.80;;;25.30;1.00;;;;;;5072969;28;20429;-77
2021/04/27 11:15:28;;;;;;;10.33;4.80;;;26.20;1.00;;;;;;5074560;28;20422;-79
2021/04/27 11:18:02;;;;;;;2.27;2.07;;;26.60;1.00;;;;;;5071867;28;20436;-78
2021/04/27 11:21:09;;;;;;;2.93;2.37;;;27.00;1.00;;;;;;5073715;28;20463;-78
2021/04/27 11:23:38;;;;;;;3.13;2.27;;;26.60;1.00;;;;;;4983304;28;20442;-80
2021/04/27 11:26:52;;;;;;;3.13;2.33;;;25.40;1.00;;;;;;5061623;28;21044;-81
2021/04/27 11:29:20;;;;;;;4.50;2.37;;;26.00;1.00;;;;;;5073860;28;20535;-79
2021/04/27 11:32:06;;;;;;;3.80;2.27;;;26.20;1.00;;;;;;5062655;28;20535;-78
2021/04/27 11:35:09;;;;;;;4.40;3.00;;;26.50;1.00;;;;;;5064858;28;20582;-79
2021/04/27 11:37:37;;;;;;;2.47;2.27;;;27.00;1.00;;;;;;5076625;28;20448;-80
2021/04/27 11:40:22;;;;;;;2.13;1.93;;;27.50;1.00;;;;;;5076648;28;20587;-79
2021/04/27 11:42:55;;;;;;;2.93;2.57;;;27.30;1.00;;;;;;5071508;28;20451;-79
2021/04/27 11:45:22;;;;;;;3.43;1.97;;;27.30;1.00;;;;;;5078276;28;20437;-84
2021/04/27 11:47:49;;;;;;;3.67;2.03;;;27.70;1.00;;;;;;5077009;28;20446;-81
2021/04/27 11:50:18;;;;;;;1.87;1.77;;;27.80;1.00;;;;;;5071719;28;20418;-80
2021/04/27 11:52:52;;;;;;;1.70;1.60;;;27.70;1.00;;;;;;5079917;28;20464;-80
2021/04/27 11:55:35;;;;;;;2.87;1.97;;;27.30;1.00;;;;;;5062806;28;20431;-81
2021/04/27 11:58:06;;;;;;;2.47;1.90;;;27.40;1.00;;;;;;5067394;28;20452;-80
2021/04/27 12:00:40;;;;;;;3.97;1.90;;;27.60;1.00;;;;;;5068569;28;20465;-80
2021/04/27 12:03:28;;;;;;;2.23;2.10;;;27.30;1.00;;;;;;5073096;28;20428;-81
2021/04/27 12:05:59;;;;;;;2.87;2.07;;;26.80;1.00;;;;;;5069422;28;20547;-80
2021/04/27 12:08:27;;;;;;;3.57;2.40;;;26.60;1.00;;;;;;5085745;28;20401;-79
2021/04/27 12:11:11;;;;;;;2.60;1.83;;;27.10;1.00;;;;;;5086987;28;20417;-82
2021/04/27 12:13:38;;;;;;;3.00;2.37;;;27.30;1.00;;;;;;5071604;28;20528;-79
2021/04/27 12:16:07;;;;;;;4.50;2.80;;;27.60;1.00;;;;;;5072084;28;20529;-79
2021/04/27 12:18:49;;;;;;;5.70;2.20;;;28.40;1.00;;;;;;5075784;28;20446;-78
2021/04/27 12:21:37;;;;;;;5.37;2.30;;;27.80;1.00;;;;;;5073102;28;20492;-77
2021/04/27 12:24:18;;;;;;;2.27;2.07;;;27.30;1.00;;;;;;5074757;28;20461;-80
2021/04/27 12:26:49;;;;;;;3.30;2.50;;;27.70;1.00;;;;;;5073020;28;20414;-78
2021/04/27 12:29:15;;;;;;;3.13;2.67;;;28.20;1.00;;;;;;5070343;28;20450;-77
2021/04/27 12:31:43;;;;;;;3.70;3.10;;;28.30;1.00;;;;;;5065702;28;21147;-80
2021/04/27 12:34:15;;;;;;;4.30;2.43;;;29.00;1.00;;;;;;5072918;28;20449;-80
2021/04/27 12:36:44;;;;;;;3.13;2.83;;;28.60;1.00;;;;;;5075613;28;20475;-79
2021/04/27 12:39:26;;;;;;;4.13;2.70;;;27.90;1.00;;;;;;5072922;28;20722;-78
2021/04/27 12:41:54;;;;;;;3.03;2.73;;;27.50;1.00;;;;;;5072954;28;20466;-78
2021/04/27 12:44:35;;;;;;;2.50;2.10;;;27.70;1.00;;;;;;5073825;28;20426;-80
2021/04/27 12:47:05;;;;;;;2.77;2.33;;;28.40;1.00;;;;;;5075875;28;20509;-80
2021/04/27 12:49:33;;;;;;;4.20;3.20;;;28.90;1.00;;;;;;5074674;28;20424;-79
2021/04/27 12:52:07;;;;;;;2.90;2.30;;;29.80;1.00;;;;;;5072858;28;20447;-80
2021/04/27 12:54:34;;;;;;;2.70;2.50;;;29.40;1.00;;;;;;5074072;28;20448;-78
2021/04/27 12:57:05;;;;;;;7.63;4.10;;;29.10;1.00;;;;;;5073556;28;20448;-81
2021/04/27 12:59:32;;;;;;;2.80;2.43;;;30.20;1.00;;;;;;5073697;28;20451;-80
2021/04/27 13:01:59;;;;;;;8.40;3.47;;;29.80;1.00;;;;;;5074950;28;20472;-80
2021/04/27 13:04:28;;;;;;;3.70;2.63;;;30.20;1.00;;;;;;5073394;28;20479;-79
2021/04/27 13:06:54;;;;;;;2.87;2.40;;;30.10;1.00;;;;;;5072856;28;20557;-81
2021/04/27 13:09:26;;;;;;;3.53;2.80;;;29.30;1.00;;;;;;5063398;28;20527;-81
2021/04/27 13:11:58;;;;;;;3.43;2.40;;;28.50;1.00;;;;;;5060738;28;20455;-80